sensor_id;sensor_type;location;lat;lon;timestamp;temperature;humidity
72114;SHT31;59989;46.220;19.888;2022-10-16T00:02:53;12.89;71.74
72114;SHT31;59989;46.220;19.888;2022-10-16T00:05:59;12.88;71.74
72114;SHT31;59989;46.220;19.888;2022-10-16T00:09:02;12.86;72.20
72114;SHT31;59989;46.220;19.888;2022-10-16T00:12:05;12.92;71.64
72114;SHT31;59989;46.220;19.888;2022-10-16T00:15:09;12.95;71.64
72114;SHT31;59989;46.220;19.888;2022-10-16T00:18:11;12.95;71.49
72114;SHT31;59989;46.220;19.888;2022-10-16T00:21:18;12.95;71.38
72114;SHT31;59989;46.220;19.888;2022-10-16T00:24:20;12.97;71.00
72114;SHT31;59989;46.220;19.888;2022-10-16T00:27:23;13.00;70.92
72114;SHT31;59989;46.220;19.888;2022-10-16T00:30:25;13.00;71.16
72114;SHT31;59989;46.220;19.888;2022-10-16T00:33:29;12.97;71.46
72114;SHT31;59989;46.220;19.888;2022-10-16T00:36:32;12.93;71.78
72114;SHT31;59989;46.220;19.888;2022-10-16T00:39:34;12.95;71.79
72114;SHT31;59989;46.220;19.888;2022-10-16T00:42:37;12.89;72.01
72114;SHT31;59989;46.220;19.888;2022-10-16T00:45:40;12.89;72.37
72114;SHT31;59989;46.220;19.888;2022-10-16T00:49:03;12.86;72.37
72114;SHT31;59989;46.220;19.888;2022-10-16T00:52:06;12.82;72.83
72114;SHT31;59989;46.220;19.888;2022-10-16T00:55:09;12.76;73.15
72114;SHT31;59989;46.220;19.888;2022-10-16T00:58:12;12.72;73.12
72114;SHT31;59989;46.220;19.888;2022-10-16T01:01:14;12.69;73.57
72114;SHT31;59989;46.220;19.888;2022-10-16T01:04:17;12.66;73.73
72114;SHT31;59989;46.220;19.888;2022-10-16T01:13:55;12.54;74.08
72114;SHT31;59989;46.220;19.888;2022-10-16T01:17:02;12.49;74.37
72114;SHT31;59989;46.220;19.888;2022-10-16T01:20:32;12.44;74.53
72114;SHT31;59989;46.220;19.888;2022-10-16T01:30:24;12.28;75.21
72114;SHT31;59989;46.220;19.888;2022-10-16T01:33:51;12.23;75.34
72114;SHT31;59989;46.220;19.888;2022-10-16T01:37:02;12.18;75.56
72114;SHT31;59989;46.220;19.888;2022-10-16T01:40:11;12.12;76.02
72114;SHT31;59989;46.220;19.888;2022-10-16T01:43:19;12.03;76.54
72114;SHT31;59989;46.220;19.888;2022-10-16T01:46:22;11.93;76.93
72114;SHT31;59989;46.220;19.888;2022-10-16T01:49:28;11.87;77.16
72114;SHT31;59989;46.220;19.888;2022-10-16T01:52:35;11.77;77.42
72114;SHT31;59989;46.220;19.888;2022-10-16T01:55:42;11.72;77.57
72114;SHT31;59989;46.220;19.888;2022-10-16T01:58:53;11.61;78.69
72114;SHT31;59989;46.220;19.888;2022-10-16T02:01:59;11.46;78.95
72114;SHT31;59989;46.220;19.888;2022-10-16T02:05:12;11.36;79.44
72114;SHT31;59989;46.220;19.888;2022-10-16T02:08:18;11.25;79.90
72114;SHT31;59989;46.220;19.888;2022-10-16T02:11:21;11.15;80.51
72114;SHT31;59989;46.220;19.888;2022-10-16T02:14:23;11.07;80.86
72114;SHT31;59989;46.220;19.888;2022-10-16T02:17:27;11.00;81.27
72114;SHT31;59989;46.220;19.888;2022-10-16T02:20:33;10.93;81.92
72114;SHT31;59989;46.220;19.888;2022-10-16T02:24:03;10.90;81.74
72114;SHT31;59989;46.220;19.888;2022-10-16T02:30:54;10.79;82.48
72114;SHT31;59989;46.220;19.888;2022-10-16T02:33:59;10.64;82.60
72114;SHT31;59989;46.220;19.888;2022-10-16T02:37:04;10.56;82.90
72114;SHT31;59989;46.220;19.888;2022-10-16T02:40:08;10.48;82.91
72114;SHT31;59989;46.220;19.888;2022-10-16T02:43:11;10.36;83.04
72114;SHT31;59989;46.220;19.888;2022-10-16T02:46:13;10.35;82.98
72114;SHT31;59989;46.220;19.888;2022-10-16T02:49:16;10.26;83.31
72114;SHT31;59989;46.220;19.888;2022-10-16T02:52:18;10.15;83.59
72114;SHT31;59989;46.220;19.888;2022-10-16T02:55:21;10.09;84.48
72114;SHT31;59989;46.220;19.888;2022-10-16T02:58:23;10.01;85.02
72114;SHT31;59989;46.220;19.888;2022-10-16T03:01:26;9.95;85.27
72114;SHT31;59989;46.220;19.888;2022-10-16T03:04:28;9.90;85.70
72114;SHT31;59989;46.220;19.888;2022-10-16T03:07:31;9.81;85.69
72114;SHT31;59989;46.220;19.888;2022-10-16T03:10:33;9.80;86.03
72114;SHT31;59989;46.220;19.888;2022-10-16T03:13:36;9.77;86.10
72114;SHT31;59989;46.220;19.888;2022-10-16T03:16:38;9.74;85.89
72114;SHT31;59989;46.220;19.888;2022-10-16T03:19:40;9.67;86.30
72114;SHT31;59989;46.220;19.888;2022-10-16T03:22:43;9.61;86.18
72114;SHT31;59989;46.220;19.888;2022-10-16T03:25:45;9.50;86.32
72114;SHT31;59989;46.220;19.888;2022-10-16T03:28:49;9.37;86.48
72114;SHT31;59989;46.220;19.888;2022-10-16T03:31:52;9.26;86.84
72114;SHT31;59989;46.220;19.888;2022-10-16T03:34:54;9.16;87.02
72114;SHT31;59989;46.220;19.888;2022-10-16T03:37:58;9.02;87.72
72114;SHT31;59989;46.220;19.888;2022-10-16T03:41:00;8.95;87.76
72114;SHT31;59989;46.220;19.888;2022-10-16T03:44:03;8.82;87.90
72114;SHT31;59989;46.220;19.888;2022-10-16T03:47:05;8.69;88.27
72114;SHT31;59989;46.220;19.888;2022-10-16T03:50:08;8.57;88.65
72114;SHT31;59989;46.220;19.888;2022-10-16T03:53:11;8.48;88.66
72114;SHT31;59989;46.220;19.888;2022-10-16T03:56:13;8.37;89.14
72114;SHT31;59989;46.220;19.888;2022-10-16T03:59:16;8.30;89.53
72114;SHT31;59989;46.220;19.888;2022-10-16T04:02:18;8.20;89.68
72114;SHT31;59989;46.220;19.888;2022-10-16T04:05:21;8.16;89.82
72114;SHT31;59989;46.220;19.888;2022-10-16T04:08:23;8.09;90.02
72114;SHT31;59989;46.220;19.888;2022-10-16T04:11:25;8.09;90.13
72114;SHT31;59989;46.220;19.888;2022-10-16T04:14:28;8.03;90.39
72114;SHT31;59989;46.220;19.888;2022-10-16T04:17:31;7.95;90.36
72114;SHT31;59989;46.220;19.888;2022-10-16T04:20:33;7.90;90.52
72114;SHT31;59989;46.220;19.888;2022-10-16T04:23:36;7.83;90.81
72114;SHT31;59989;46.220;19.888;2022-10-16T04:26:38;7.75;90.95
72114;SHT31;59989;46.220;19.888;2022-10-16T04:29:41;7.74;91.64
72114;SHT31;59989;46.220;19.888;2022-10-16T04:32:43;7.92;91.88
72114;SHT31;59989;46.220;19.888;2022-10-16T04:35:45;7.95;91.59
72114;SHT31;59989;46.220;19.888;2022-10-16T04:38:48;7.95;91.69
72114;SHT31;59989;46.220;19.888;2022-10-16T04:41:51;8.00;91.71
72114;SHT31;59989;46.220;19.888;2022-10-16T04:44:53;8.02;91.53
72114;SHT31;59989;46.220;19.888;2022-10-16T04:47:59;8.03;91.34
72114;SHT31;59989;46.220;19.888;2022-10-16T04:51:02;7.99;91.29
72114;SHT31;59989;46.220;19.888;2022-10-16T04:54:04;7.98;91.31
72114;SHT31;59989;46.220;19.888;2022-10-16T04:57:07;7.98;91.41
72114;SHT31;59989;46.220;19.888;2022-10-16T05:00:09;7.98;91.36
72114;SHT31;59989;46.220;19.888;2022-10-16T05:03:12;7.98;91.23
72114;SHT31;59989;46.220;19.888;2022-10-16T05:06:15;7.90;91.21
72114;SHT31;59989;46.220;19.888;2022-10-16T05:09:18;7.90;91.46
72114;SHT31;59989;46.220;19.888;2022-10-16T05:12:20;7.93;91.44
72114;SHT31;59989;46.220;19.888;2022-10-16T05:15:23;7.95;91.32
72114;SHT31;59989;46.220;19.888;2022-10-16T05:18:27;8.03;91.34
72114;SHT31;59989;46.220;19.888;2022-10-16T05:21:29;8.09;91.20
72114;SHT31;59989;46.220;19.888;2022-10-16T05:24:32;8.13;91.27
72114;SHT31;59989;46.220;19.888;2022-10-16T05:27:34;8.23;90.98
72114;SHT31;59989;46.220;19.888;2022-10-16T05:30:37;8.27;90.88
72114;SHT31;59989;46.220;19.888;2022-10-16T05:33:40;8.37;90.80
72114;SHT31;59989;46.220;19.888;2022-10-16T05:36:42;8.47;90.55
72114;SHT31;59989;46.220;19.888;2022-10-16T05:39:47;8.48;89.97
72114;SHT31;59989;46.220;19.888;2022-10-16T05:42:49;8.53;89.78
72114;SHT31;59989;46.220;19.888;2022-10-16T05:46:00;8.65;90.08
72114;SHT31;59989;46.220;19.888;2022-10-16T05:49:02;8.78;90.00
72114;SHT31;59989;46.220;19.888;2022-10-16T05:52:05;8.88;89.58
72114;SHT31;59989;46.220;19.888;2022-10-16T05:55:07;8.93;89.30
72114;SHT31;59989;46.220;19.888;2022-10-16T05:58:10;9.04;89.11
72114;SHT31;59989;46.220;19.888;2022-10-16T06:01:16;9.12;88.87
72114;SHT31;59989;46.220;19.888;2022-10-16T06:04:19;9.32;88.23
72114;SHT31;59989;46.220;19.888;2022-10-16T06:07:22;9.42;88.06
72114;SHT31;59989;46.220;19.888;2022-10-16T06:10:25;9.55;87.87
72114;SHT31;59989;46.220;19.888;2022-10-16T06:13:27;9.63;87.62
72114;SHT31;59989;46.220;19.888;2022-10-16T06:16:30;9.73;87.30
72114;SHT31;59989;46.220;19.888;2022-10-16T06:19:32;9.82;86.61
72114;SHT31;59989;46.220;19.888;2022-10-16T06:22:35;9.94;86.37
72114;SHT31;59989;46.220;19.888;2022-10-16T06:25:37;10.11;85.76
72114;SHT31;59989;46.220;19.888;2022-10-16T06:28:40;10.19;85.67
72114;SHT31;59989;46.220;19.888;2022-10-16T06:31:42;10.31;85.22
72114;SHT31;59989;46.220;19.888;2022-10-16T06:34:45;10.43;85.01
72114;SHT31;59989;46.220;19.888;2022-10-16T06:37:47;10.53;84.64
72114;SHT31;59989;46.220;19.888;2022-10-16T06:40:49;10.57;84.03
72114;SHT31;59989;46.220;19.888;2022-10-16T06:43:52;10.79;83.67
72114;SHT31;59989;46.220;19.888;2022-10-16T06:46:54;10.91;83.11
72114;SHT31;59989;46.220;19.888;2022-10-16T06:49:57;11.03;83.66
72114;SHT31;59989;46.220;19.888;2022-10-16T06:52:59;11.15;82.67
72114;SHT31;59989;46.220;19.888;2022-10-16T06:56:08;11.27;82.85
72114;SHT31;59989;46.220;19.888;2022-10-16T06:59:11;11.48;81.85
72114;SHT31;59989;46.220;19.888;2022-10-16T07:02:13;11.66;81.17
72114;SHT31;59989;46.220;19.888;2022-10-16T07:05:16;11.91;80.14
72114;SHT31;59989;46.220;19.888;2022-10-16T07:08:18;12.14;78.95
72114;SHT31;59989;46.220;19.888;2022-10-16T07:11:22;12.37;77.78
72114;SHT31;59989;46.220;19.888;2022-10-16T07:14:25;12.44;77.39
72114;SHT31;59989;46.220;19.888;2022-10-16T07:17:27;12.56;77.11
72114;SHT31;59989;46.220;19.888;2022-10-16T07:20:30;12.72;76.46
72114;SHT31;59989;46.220;19.888;2022-10-16T07:23:33;12.91;75.65
72114;SHT31;59989;46.220;19.888;2022-10-16T07:26:36;13.13;75.69
72114;SHT31;59989;46.220;19.888;2022-10-16T07:29:41;13.31;75.44
72114;SHT31;59989;46.220;19.888;2022-10-16T07:32:43;13.39;73.69
72114;SHT31;59989;46.220;19.888;2022-10-16T07:35:50;13.61;73.95
72114;SHT31;59989;46.220;19.888;2022-10-16T07:38:53;13.83;73.51
72114;SHT31;59989;46.220;19.888;2022-10-16T07:42:01;14.05;71.89
72114;SHT31;59989;46.220;19.888;2022-10-16T07:45:04;14.30;70.74
72114;SHT31;59989;46.220;19.888;2022-10-16T07:48:06;14.63;70.54
72114;SHT31;59989;46.220;19.888;2022-10-16T07:51:10;14.85;69.19
72114;SHT31;59989;46.220;19.888;2022-10-16T07:54:12;14.99;68.03
72114;SHT31;59989;46.220;19.888;2022-10-16T07:57:14;15.19;67.87
72114;SHT31;59989;46.220;19.888;2022-10-16T08:00:21;15.31;67.79
72114;SHT31;59989;46.220;19.888;2022-10-16T08:03:24;15.52;66.74
72114;SHT31;59989;46.220;19.888;2022-10-16T08:06:27;15.50;66.16
72114;SHT31;59989;46.220;19.888;2022-10-16T08:09:30;15.49;66.13
72114;SHT31;59989;46.220;19.888;2022-10-16T08:12:33;15.70;66.45
72114;SHT31;59989;46.220;19.888;2022-10-16T08:15:35;15.74;65.98
72114;SHT31;59989;46.220;19.888;2022-10-16T08:18:39;16.00;65.21
72114;SHT31;59989;46.220;19.888;2022-10-16T08:21:42;16.04;64.88
72114;SHT31;59989;46.220;19.888;2022-10-16T08:24:44;16.17;63.76
72114;SHT31;59989;46.220;19.888;2022-10-16T08:27:47;16.24;63.74
72114;SHT31;59989;46.220;19.888;2022-10-16T08:30:49;16.18;62.75
72114;SHT31;59989;46.220;19.888;2022-10-16T08:33:52;16.55;62.86
72114;SHT31;59989;46.220;19.888;2022-10-16T08:36:55;16.69;61.68
72114;SHT31;59989;46.220;19.888;2022-10-16T08:39:57;16.90;61.15
72114;SHT31;59989;46.220;19.888;2022-10-16T08:49:23;17.48;60.86
72114;SHT31;59989;46.220;19.888;2022-10-16T08:52:30;17.44;60.08
72114;SHT31;59989;46.220;19.888;2022-10-16T08:55:50;17.37;59.39
72114;SHT31;59989;46.220;19.888;2022-10-16T08:58:54;17.44;60.07
72114;SHT31;59989;46.220;19.888;2022-10-16T09:02:28;17.64;58.62
72114;SHT31;59989;46.220;19.888;2022-10-16T09:12:27;18.17;58.88
72114;SHT31;59989;46.220;19.888;2022-10-16T09:15:55;18.26;57.84
72114;SHT31;59989;46.220;19.888;2022-10-16T09:19:12;18.17;57.34
72114;SHT31;59989;46.220;19.888;2022-10-16T09:22:17;18.50;56.82
72114;SHT31;59989;46.220;19.888;2022-10-16T09:25:20;18.55;56.98
72114;SHT31;59989;46.220;19.888;2022-10-16T09:28:23;18.78;55.53
72114;SHT31;59989;46.220;19.888;2022-10-16T09:31:26;18.76;55.73
72114;SHT31;59989;46.220;19.888;2022-10-16T09:34:36;18.76;55.81
72114;SHT31;59989;46.220;19.888;2022-10-16T09:37:43;18.96;55.78
72114;SHT31;59989;46.220;19.888;2022-10-16T09:40:46;19.20;55.96
72114;SHT31;59989;46.220;19.888;2022-10-16T09:44:06;19.23;55.33
72114;SHT31;59989;46.220;19.888;2022-10-16T09:47:21;19.46;53.64
72114;SHT31;59989;46.220;19.888;2022-10-16T09:50:26;19.77;53.57
72114;SHT31;59989;46.220;19.888;2022-10-16T09:53:44;19.74;53.01
72114;SHT31;59989;46.220;19.888;2022-10-16T09:56:48;19.45;53.85
72114;SHT31;59989;46.220;19.888;2022-10-16T10:00:16;19.78;53.10
72114;SHT31;59989;46.220;19.888;2022-10-16T10:03:37;19.91;52.85
72114;SHT31;59989;46.220;19.888;2022-10-16T10:09:48;19.91;53.41
72114;SHT31;59989;46.220;19.888;2022-10-16T10:12:51;20.07;52.87
72114;SHT31;59989;46.220;19.888;2022-10-16T10:15:54;20.09;52.95
72114;SHT31;59989;46.220;19.888;2022-10-16T10:19:00;20.30;51.90
72114;SHT31;59989;46.220;19.888;2022-10-16T10:22:22;20.29;51.93
72114;SHT31;59989;46.220;19.888;2022-10-16T10:32:24;20.76;50.32
72114;SHT31;59989;46.220;19.888;2022-10-16T10:35:43;21.06;49.70
72114;SHT31;59989;46.220;19.888;2022-10-16T10:45:24;21.67;47.98
72114;SHT31;59989;46.220;19.888;2022-10-16T11:01:48;21.54;48.59
72114;SHT31;59989;46.220;19.888;2022-10-16T11:08:35;21.97;47.36
72114;SHT31;59989;46.220;19.888;2022-10-16T11:11:43;22.58;45.99
72114;SHT31;59989;46.220;19.888;2022-10-16T11:18:07;22.30;46.70
72114;SHT31;59989;46.220;19.888;2022-10-16T11:21:16;21.86;48.04
72114;SHT31;59989;46.220;19.888;2022-10-16T11:24:46;22.27;47.68
72114;SHT31;59989;46.220;19.888;2022-10-16T11:27:55;22.18;46.61
72114;SHT31;59989;46.220;19.888;2022-10-16T11:31:00;22.24;47.00
72114;SHT31;59989;46.220;19.888;2022-10-16T11:34:26;22.17;46.89
72114;SHT31;59989;46.220;19.888;2022-10-16T11:37:42;22.64;45.75
72114;SHT31;59989;46.220;19.888;2022-10-16T11:40:48;22.13;46.52
72114;SHT31;59989;46.220;19.888;2022-10-16T11:51:22;22.43;47.51
72114;SHT31;59989;46.220;19.888;2022-10-16T11:54:49;23.19;44.35
72114;SHT31;59989;46.220;19.888;2022-10-16T11:57:57;22.88;45.06
72114;SHT31;59989;46.220;19.888;2022-10-16T12:07:21;23.51;43.79
72114;SHT31;59989;46.220;19.888;2022-10-16T12:10:28;23.60;43.47
72114;SHT31;59989;46.220;19.888;2022-10-16T12:13:42;23.18;44.19
72114;SHT31;59989;46.220;19.888;2022-10-16T12:17:22;23.39;43.38
72114;SHT31;59989;46.220;19.888;2022-10-16T12:20:32;23.19;44.08
72114;SHT31;59989;46.220;19.888;2022-10-16T12:26:49;22.40;44.97
72114;SHT31;59989;46.220;19.888;2022-10-16T12:29:58;22.78;44.54
72114;SHT31;59989;46.220;19.888;2022-10-16T12:33:38;22.96;44.05
72114;SHT31;59989;46.220;19.888;2022-10-16T12:36:42;24.21;41.74
72114;SHT31;59989;46.220;19.888;2022-10-16T12:39:45;25.01;40.04
72114;SHT31;59989;46.220;19.888;2022-10-16T12:42:47;26.31;37.86
72114;SHT31;59989;46.220;19.888;2022-10-16T12:46:03;26.34;37.15
72114;SHT31;59989;46.220;19.888;2022-10-16T12:52:31;28.12;34.38
72114;SHT31;59989;46.220;19.888;2022-10-16T12:55:50;27.50;35.27
72114;SHT31;59989;46.220;19.888;2022-10-16T13:09:14;29.42;31.73
72114;SHT31;59989;46.220;19.888;2022-10-16T13:16:23;29.63;31.32
72114;SHT31;59989;46.220;19.888;2022-10-16T13:26:14;29.35;31.12
72114;SHT31;59989;46.220;19.888;2022-10-16T13:29:19;29.49;31.44
72114;SHT31;59989;46.220;19.888;2022-10-16T13:32:22;29.84;30.88
72114;SHT31;59989;46.220;19.888;2022-10-16T13:35:30;28.45;32.68
72114;SHT31;59989;46.220;19.888;2022-10-16T13:38:35;26.68;35.16
72114;SHT31;59989;46.220;19.888;2022-10-16T13:41:37;25.00;38.53
72114;SHT31;59989;46.220;19.888;2022-10-16T13:44:45;24.12;40.82
72114;SHT31;59989;46.220;19.888;2022-10-16T13:47:48;23.74;41.31
72114;SHT31;59989;46.220;19.888;2022-10-16T13:51:05;23.36;42.66
72114;SHT31;59989;46.220;19.888;2022-10-16T13:54:10;22.94;42.95
72114;SHT31;59989;46.220;19.888;2022-10-16T13:57:15;22.62;43.40
72114;SHT31;59989;46.220;19.888;2022-10-16T14:00:28;22.57;43.72
72114;SHT31;59989;46.220;19.888;2022-10-16T14:03:33;22.21;44.06
72114;SHT31;59989;46.220;19.888;2022-10-16T14:06:42;22.24;44.26
72114;SHT31;59989;46.220;19.888;2022-10-16T14:09:48;22.12;45.12
72114;SHT31;59989;46.220;19.888;2022-10-16T14:13:05;22.09;45.51
72114;SHT31;59989;46.220;19.888;2022-10-16T14:16:10;22.18;45.82
72114;SHT31;59989;46.220;19.888;2022-10-16T14:19:27;22.20;44.83
72114;SHT31;59989;46.220;19.888;2022-10-16T14:22:39;21.83;45.72
72114;SHT31;59989;46.220;19.888;2022-10-16T14:25:44;21.37;47.08
72114;SHT31;59989;46.220;19.888;2022-10-16T14:28:49;21.18;47.93
72114;SHT31;59989;46.220;19.888;2022-10-16T14:31:56;20.96;48.23
72114;SHT31;59989;46.220;19.888;2022-10-16T14:34:59;20.73;48.16
72114;SHT31;59989;46.220;19.888;2022-10-16T14:38:03;20.59;48.61
72114;SHT31;59989;46.220;19.888;2022-10-16T14:41:06;20.43;49.92
72114;SHT31;59989;46.220;19.888;2022-10-16T14:44:10;20.28;49.75
72114;SHT31;59989;46.220;19.888;2022-10-16T14:47:16;20.11;51.60
72114;SHT31;59989;46.220;19.888;2022-10-16T14:50:20;19.97;51.54
72114;SHT31;59989;46.220;19.888;2022-10-16T14:53:23;19.87;52.33
72114;SHT31;59989;46.220;19.888;2022-10-16T14:56:30;19.74;53.17
72114;SHT31;59989;46.220;19.888;2022-10-16T14:59:40;19.64;52.25
72114;SHT31;59989;46.220;19.888;2022-10-16T15:02:43;19.51;52.77
72114;SHT31;59989;46.220;19.888;2022-10-16T15:05:46;19.42;53.63
72114;SHT31;59989;46.220;19.888;2022-10-16T15:08:48;19.29;53.96
72114;SHT31;59989;46.220;19.888;2022-10-16T15:11:51;19.18;54.78
72114;SHT31;59989;46.220;19.888;2022-10-16T15:14:53;19.02;54.66
72114;SHT31;59989;46.220;19.888;2022-10-16T15:17:56;18.89;55.99
72114;SHT31;59989;46.220;19.888;2022-10-16T15:20:59;18.78;56.76
72114;SHT31;59989;46.220;19.888;2022-10-16T15:24:01;18.64;57.48
72114;SHT31;59989;46.220;19.888;2022-10-16T15:27:04;18.43;59.04
72114;SHT31;59989;46.220;19.888;2022-10-16T15:30:06;18.26;58.92
72114;SHT31;59989;46.220;19.888;2022-10-16T15:33:15;18.10;59.70
72114;SHT31;59989;46.220;19.888;2022-10-16T15:36:30;17.93;60.33
72114;SHT31;59989;46.220;19.888;2022-10-16T15:39:35;17.72;60.52
72114;SHT31;59989;46.220;19.888;2022-10-16T15:42:42;17.54;62.35
72114;SHT31;59989;46.220;19.888;2022-10-16T15:45:59;17.32;62.69
72114;SHT31;59989;46.220;19.888;2022-10-16T15:49:03;17.16;62.91
72114;SHT31;59989;46.220;19.888;2022-10-16T15:52:06;17.03;64.20
72114;SHT31;59989;46.220;19.888;2022-10-16T15:55:09;16.86;65.21
72114;SHT31;59989;46.220;19.888;2022-10-16T15:58:12;16.72;65.44
72114;SHT31;59989;46.220;19.888;2022-10-16T16:01:15;16.51;66.72
72114;SHT31;59989;46.220;19.888;2022-10-16T16:04:18;16.35;67.32
72114;SHT31;59989;46.220;19.888;2022-10-16T16:07:41;16.21;67.74
72114;SHT31;59989;46.220;19.888;2022-10-16T16:10:43;16.05;67.64
72114;SHT31;59989;46.220;19.888;2022-10-16T16:13:46;15.90;67.76
72114;SHT31;59989;46.220;19.888;2022-10-16T16:16:48;15.76;67.68
72114;SHT31;59989;46.220;19.888;2022-10-16T16:19:51;15.66;68.01
72114;SHT31;59989;46.220;19.888;2022-10-16T16:22:53;15.56;69.32
72114;SHT31;59989;46.220;19.888;2022-10-16T16:26:22;15.42;69.51
72114;SHT31;59989;46.220;19.888;2022-10-16T16:29:34;15.32;69.47
72114;SHT31;59989;46.220;19.888;2022-10-16T16:32:37;15.25;69.28
72114;SHT31;59989;46.220;19.888;2022-10-16T16:35:39;15.15;69.19
72114;SHT31;59989;46.220;19.888;2022-10-16T16:38:41;15.05;69.75
72114;SHT31;59989;46.220;19.888;2022-10-16T16:41:44;14.94;70.99
72114;SHT31;59989;46.220;19.888;2022-10-16T16:44:48;14.83;71.62
72114;SHT31;59989;46.220;19.888;2022-10-16T16:47:50;14.67;72.74
72114;SHT31;59989;46.220;19.888;2022-10-16T16:50:53;14.59;72.89
72114;SHT31;59989;46.220;19.888;2022-10-16T16:53:56;14.49;73.45
72114;SHT31;59989;46.220;19.888;2022-10-16T16:56:59;14.28;75.30
72114;SHT31;59989;46.220;19.888;2022-10-16T17:00:03;14.19;75.39
72114;SHT31;59989;46.220;19.888;2022-10-16T17:03:06;14.05;75.80
72114;SHT31;59989;46.220;19.888;2022-10-16T17:06:10;13.97;76.03
72114;SHT31;59989;46.220;19.888;2022-10-16T17:09:12;13.92;75.34
72114;SHT31;59989;46.220;19.888;2022-10-16T17:12:15;13.86;75.40
72114;SHT31;59989;46.220;19.888;2022-10-16T17:15:17;13.77;75.09
72114;SHT31;59989;46.220;19.888;2022-10-16T17:18:21;13.71;75.80
72114;SHT31;59989;46.220;19.888;2022-10-16T17:21:24;13.64;75.37
72114;SHT31;59989;46.220;19.888;2022-10-16T17:24:27;13.65;74.92
72114;SHT31;59989;46.220;19.888;2022-10-16T17:27:30;13.62;74.59
72114;SHT31;59989;46.220;19.888;2022-10-16T17:30:33;13.61;74.49
72114;SHT31;59989;46.220;19.888;2022-10-16T17:33:36;13.58;74.81
72114;SHT31;59989;46.220;19.888;2022-10-16T17:36:39;13.51;75.40
72114;SHT31;59989;46.220;19.888;2022-10-16T17:39:45;13.40;75.91
72114;SHT31;59989;46.220;19.888;2022-10-16T17:42:48;13.36;75.73
72114;SHT31;59989;46.220;19.888;2022-10-16T17:45:50;13.30;76.15
72114;SHT31;59989;46.220;19.888;2022-10-16T17:48:53;13.20;78.01
72114;SHT31;59989;46.220;19.888;2022-10-16T17:51:56;13.10;77.59
72114;SHT31;59989;46.220;19.888;2022-10-16T17:55:00;13.00;77.70
72114;SHT31;59989;46.220;19.888;2022-10-16T17:58:02;12.91;79.00
72114;SHT31;59989;46.220;19.888;2022-10-16T18:01:21;12.79;79.85
72114;SHT31;59989;46.220;19.888;2022-10-16T18:04:24;12.69;80.71
72114;SHT31;59989;46.220;19.888;2022-10-16T18:07:27;12.56;80.31
72114;SHT31;59989;46.220;19.888;2022-10-16T18:10:29;12.48;81.19
72114;SHT31;59989;46.220;19.888;2022-10-16T18:13:32;12.44;81.51
72114;SHT31;59989;46.220;19.888;2022-10-16T18:16:34;12.38;81.01
72114;SHT31;59989;46.220;19.888;2022-10-16T18:19:38;12.33;80.98
72114;SHT31;59989;46.220;19.888;2022-10-16T18:22:40;12.27;81.15
72114;SHT31;59989;46.220;19.888;2022-10-16T18:25:48;12.17;81.21
72114;SHT31;59989;46.220;19.888;2022-10-16T18:28:54;12.13;81.50
72114;SHT31;59989;46.220;19.888;2022-10-16T18:31:57;12.03;82.33
72114;SHT31;59989;46.220;19.888;2022-10-16T18:34:59;12.00;82.17
72114;SHT31;59989;46.220;19.888;2022-10-16T18:38:02;11.93;81.82
72114;SHT31;59989;46.220;19.888;2022-10-16T18:41:04;11.97;80.78
72114;SHT31;59989;46.220;19.888;2022-10-16T18:44:07;12.18;80.37
72114;SHT31;59989;46.220;19.888;2022-10-16T18:47:12;12.31;79.76
72114;SHT31;59989;46.220;19.888;2022-10-16T18:50:14;12.20;79.56
72114;SHT31;59989;46.220;19.888;2022-10-16T18:53:17;12.14;79.54
72114;SHT31;59989;46.220;19.888;2022-10-16T18:56:21;12.07;79.65
72114;SHT31;59989;46.220;19.888;2022-10-16T18:59:24;11.96;81.30
72114;SHT31;59989;46.220;19.888;2022-10-16T19:02:27;11.91;80.45
72114;SHT31;59989;46.220;19.888;2022-10-16T19:05:32;11.83;80.74
72114;SHT31;59989;46.220;19.888;2022-10-16T19:08:36;11.73;81.55
72114;SHT31;59989;46.220;19.888;2022-10-16T19:11:40;11.66;81.70
72114;SHT31;59989;46.220;19.888;2022-10-16T19:14:43;11.61;82.19
72114;SHT31;59989;46.220;19.888;2022-10-16T19:17:45;11.55;82.05
72114;SHT31;59989;46.220;19.888;2022-10-16T19:20:48;11.52;81.54
72114;SHT31;59989;46.220;19.888;2022-10-16T19:23:56;11.49;81.90
72114;SHT31;59989;46.220;19.888;2022-10-16T19:26:58;11.42;82.32
72114;SHT31;59989;46.220;19.888;2022-10-16T19:30:01;11.35;82.67
72114;SHT31;59989;46.220;19.888;2022-10-16T19:33:05;11.32;82.78
72114;SHT31;59989;46.220;19.888;2022-10-16T19:36:12;11.25;83.16
72114;SHT31;59989;46.220;19.888;2022-10-16T19:39:15;11.25;83.79
72114;SHT31;59989;46.220;19.888;2022-10-16T19:42:25;11.14;84.47
72114;SHT31;59989;46.220;19.888;2022-10-16T19:45:28;11.06;85.00
72114;SHT31;59989;46.220;19.888;2022-10-16T19:48:31;10.97;84.87
72114;SHT31;59989;46.220;19.888;2022-10-16T19:51:34;10.96;84.86
72114;SHT31;59989;46.220;19.888;2022-10-16T19:54:36;10.93;84.53
72114;SHT31;59989;46.220;19.888;2022-10-16T19:57:40;10.84;85.25
72114;SHT31;59989;46.220;19.888;2022-10-16T20:00:42;10.85;84.84
72114;SHT31;59989;46.220;19.888;2022-10-16T20:03:47;10.88;84.81
72114;SHT31;59989;46.220;19.888;2022-10-16T20:06:49;10.85;85.05
72114;SHT31;59989;46.220;19.888;2022-10-16T20:09:52;10.79;86.08
72114;SHT31;59989;46.220;19.888;2022-10-16T20:12:54;10.70;86.15
72114;SHT31;59989;46.220;19.888;2022-10-16T20:15:57;10.61;86.16
72114;SHT31;59989;46.220;19.888;2022-10-16T20:19:00;10.57;85.94
72114;SHT31;59989;46.220;19.888;2022-10-16T20:22:02;10.52;86.39
72114;SHT31;59989;46.220;19.888;2022-10-16T20:25:05;10.49;86.74
72114;SHT31;59989;46.220;19.888;2022-10-16T20:28:13;10.46;87.11
72114;SHT31;59989;46.220;19.888;2022-10-16T20:31:25;10.42;86.97
72114;SHT31;59989;46.220;19.888;2022-10-16T20:34:27;10.49;86.64
72114;SHT31;59989;46.220;19.888;2022-10-16T20:37:30;10.42;86.85
72114;SHT31;59989;46.220;19.888;2022-10-16T20:40:38;10.31;87.08
72114;SHT31;59989;46.220;19.888;2022-10-16T20:43:42;10.31;87.62
72114;SHT31;59989;46.220;19.888;2022-10-16T20:46:45;10.26;87.55
72114;SHT31;59989;46.220;19.888;2022-10-16T20:49:47;10.25;87.74
72114;SHT31;59989;46.220;19.888;2022-10-16T20:52:50;10.18;88.04
72114;SHT31;59989;46.220;19.888;2022-10-16T20:55:52;10.12;88.17
72114;SHT31;59989;46.220;19.888;2022-10-16T20:58:55;10.08;88.11
72114;SHT31;59989;46.220;19.888;2022-10-16T21:01:57;9.99;88.44
72114;SHT31;59989;46.220;19.888;2022-10-16T21:05:00;9.91;88.41
72114;SHT31;59989;46.220;19.888;2022-10-16T21:08:02;9.85;88.95